Terminal Aerodrome Forecast
Issued by NWS

Current Version | Previous Version | Text Only | Print | Product List | Glossary On
Versions: 1 2 3 4 5 6 7 8 9 10 11 12 13 14
000
FTUS41 KLWX 252334
TAFMTN
TAF
KMTN 252334Z 2600/2624 20005KT P6SM FEW250
     FM260800 VRB04KT P6SM FEW200
     FM261600 17006KT P6SM SCT150
     FM262100 17009KT P6SM BKN110
      AMD NOT SKED 2602/2612=

USA.gov is the U.S. government's official web portal to all federal, state and local government web resources and services.